ダッカ の空港の天気 - METARとTAF

シャージャラル国際空港(ダッカ) ( VGHS / DAC ) - バングラデシュ ダッカ
飛行場実況気象(Metar)
観測時間12/09 22:00 BDT (12/09 16:00 UTC)
風向・風速静穏 0m/s
視程3500m
天気現象煙霧
なし
気温23℃
湿度65%
気圧1013hPa
METARVGHS 091600Z 00000KT 3500 HZ NSC 23/16 Q1013 NOSIG
過去の天気等 Google飛行場航空写真 Wunderground天気予報

過去48時間のMETAR

飛行場予報(TAF)
発表時間: 12/09 17:00 BDT (12/09 11:00 UTC)
予報対象時間: 9日18時 BDT ~ 11日0時 BDT
風向・風速北西 3m/s
視程3500m
天気現象煙霧
少しの雲 雲底高度 3050m
10日0時 BDT ~ 10日2時 BDT に徐々に
風向・風速静穏
視程3200m
天気現象煙霧
全天の4割程度の雲 雲底高度 3050m
10日5時 BDT ~ 10日7時 BDT に徐々に
風向・風速静穏
視程2000m
天気現象もや
少しの雲 雲底高度 460m
全天の4割程度の雲 雲底高度 3050m
10日13時 BDT ~ 10日15時 BDT に徐々に
風向・風速北 2m/s
視程3500m
天気現象煙霧
全天の4割程度の雲 雲底高度 3050m
TAF COR VGHS 091100Z 0912/1018 31005KT 3500 HZ FEW100
BECMG 0918/0920 00000KT 3200 HZ SCT100
BECMG 0923/1001 00000KT 2000 BR FEW015 SCT100
BECMG 1007/1009 35004KT 3500 HZ SCT100